sensor_id;sensor_type;location;lat;lon;timestamp;temperature;humidity
64718;DHT22;62506;46.070;14.492;2023-02-12T00:02:10;21.60;40.60
64718;DHT22;62506;46.070;14.492;2023-02-12T00:04:35;21.60;40.60
64718;DHT22;62506;46.070;14.492;2023-02-12T00:07:02;21.50;40.60
64718;DHT22;62506;46.070;14.492;2023-02-12T00:09:28;21.50;40.60
64718;DHT22;62506;46.070;14.492;2023-02-12T00:11:53;21.50;40.70
64718;DHT22;62506;46.070;14.492;2023-02-12T00:14:19;21.50;40.80
64718;DHT22;62506;46.070;14.492;2023-02-12T00:16:44;21.50;40.80
64718;DHT22;62506;46.070;14.492;2023-02-12T00:19:10;21.50;40.90
64718;DHT22;62506;46.070;14.492;2023-02-12T00:21:35;21.50;40.80
64718;DHT22;62506;46.070;14.492;2023-02-12T00:24:02;21.50;40.90
64718;DHT22;62506;46.070;14.492;2023-02-12T00:26:28;21.40;40.90
64718;DHT22;62506;46.070;14.492;2023-02-12T00:28:54;21.40;40.90
64718;DHT22;62506;46.070;14.492;2023-02-12T00:31:23;21.40;40.90
64718;DHT22;62506;46.070;14.492;2023-02-12T00:33:49;21.40;40.90
64718;DHT22;62506;46.070;14.492;2023-02-12T00:36:16;21.40;40.90
64718;DHT22;62506;46.070;14.492;2023-02-12T00:38:42;21.40;41.00
64718;DHT22;62506;46.070;14.492;2023-02-12T00:41:07;21.40;41.00
64718;DHT22;62506;46.070;14.492;2023-02-12T00:43:33;21.40;41.00
64718;DHT22;62506;46.070;14.492;2023-02-12T00:45:59;21.40;41.00
64718;DHT22;62506;46.070;14.492;2023-02-12T00:48:24;21.40;40.90
64718;DHT22;62506;46.070;14.492;2023-02-12T00:50:50;21.40;41.00
64718;DHT22;62506;46.070;14.492;2023-02-12T00:53:16;21.40;41.10
64718;DHT22;62506;46.070;14.492;2023-02-12T00:55:41;21.40;41.10
64718;DHT22;62506;46.070;14.492;2023-02-12T00:58:07;21.40;41.00
64718;DHT22;62506;46.070;14.492;2023-02-12T01:00:33;21.40;41.00
64718;DHT22;62506;46.070;14.492;2023-02-12T01:02:58;21.40;41.10
64718;DHT22;62506;46.070;14.492;2023-02-12T01:05:24;21.40;41.00
64718;DHT22;62506;46.070;14.492;2023-02-12T01:07:50;21.40;41.10
64718;DHT22;62506;46.070;14.492;2023-02-12T01:10:16;21.40;41.10
64718;DHT22;62506;46.070;14.492;2023-02-12T01:12:42;21.40;41.10
64718;DHT22;62506;46.070;14.492;2023-02-12T01:15:08;21.40;41.10
64718;DHT22;62506;46.070;14.492;2023-02-12T01:17:36;21.40;41.10
64718;DHT22;62506;46.070;14.492;2023-02-12T01:20:02;21.40;41.10
64718;DHT22;62506;46.070;14.492;2023-02-12T01:22:30;21.40;41.10
64718;DHT22;62506;46.070;14.492;2023-02-12T01:24:55;21.40;41.10
64718;DHT22;62506;46.070;14.492;2023-02-12T01:27:21;21.40;41.10
64718;DHT22;62506;46.070;14.492;2023-02-12T01:29:46;21.40;41.10
64718;DHT22;62506;46.070;14.492;2023-02-12T01:32:12;21.40;41.10
64718;DHT22;62506;46.070;14.492;2023-02-12T01:34:37;21.40;41.10
64718;DHT22;62506;46.070;14.492;2023-02-12T01:37:03;21.40;41.10
64718;DHT22;62506;46.070;14.492;2023-02-12T01:39:28;21.40;41.20
64718;DHT22;62506;46.070;14.492;2023-02-12T01:41:54;21.40;41.20
64718;DHT22;62506;46.070;14.492;2023-02-12T01:44:21;21.40;41.20
64718;DHT22;62506;46.070;14.492;2023-02-12T01:46:48;21.40;41.20
64718;DHT22;62506;46.070;14.492;2023-02-12T01:52:16;21.30;41.10
64718;DHT22;62506;46.070;14.492;2023-02-12T01:54:43;21.30;41.20
64718;DHT22;62506;46.070;14.492;2023-02-12T01:57:09;21.30;41.20
64718;DHT22;62506;46.070;14.492;2023-02-12T01:59:36;21.30;41.20
64718;DHT22;62506;46.070;14.492;2023-02-12T02:02:03;21.30;41.20
64718;DHT22;62506;46.070;14.492;2023-02-12T02:04:30;21.30;41.30
64718;DHT22;62506;46.070;14.492;2023-02-12T02:06:58;21.30;41.40
64718;DHT22;62506;46.070;14.492;2023-02-12T02:09:24;21.30;41.40
64718;DHT22;62506;46.070;14.492;2023-02-12T02:11:50;21.30;41.40
64718;DHT22;62506;46.070;14.492;2023-02-12T02:14:35;21.20;41.30
64718;DHT22;62506;46.070;14.492;2023-02-12T02:22:16;21.20;41.40
64718;DHT22;62506;46.070;14.492;2023-02-12T02:34:49;21.20;41.40
64718;DHT22;62506;46.070;14.492;2023-02-12T02:37:22;21.20;41.40
64718;DHT22;62506;46.070;14.492;2023-02-12T02:39:52;21.20;41.50
64718;DHT22;62506;46.070;14.492;2023-02-12T02:42:22;21.20;41.50
64718;DHT22;62506;46.070;14.492;2023-02-12T02:44:53;21.20;41.60
64718;DHT22;62506;46.070;14.492;2023-02-12T02:47:29;21.20;41.70
64718;DHT22;62506;46.070;14.492;2023-02-12T02:49:58;21.10;41.60
64718;DHT22;62506;46.070;14.492;2023-02-12T02:52:37;21.10;41.60
64718;DHT22;62506;46.070;14.492;2023-02-12T02:55:05;21.10;41.50
64718;DHT22;62506;46.070;14.492;2023-02-12T02:57:35;21.20;41.50
64718;DHT22;62506;46.070;14.492;2023-02-12T03:00:04;21.20;41.40
64718;DHT22;62506;46.070;14.492;2023-02-12T03:02:32;21.20;41.40
64718;DHT22;62506;46.070;14.492;2023-02-12T03:04:59;21.20;41.40
64718;DHT22;62506;46.070;14.492;2023-02-12T03:07:31;21.20;41.40
64718;DHT22;62506;46.070;14.492;2023-02-12T03:10:01;21.20;41.40
64718;DHT22;62506;46.070;14.492;2023-02-12T03:12:30;21.10;41.30
64718;DHT22;62506;46.070;14.492;2023-02-12T03:15:02;21.10;41.30
64718;DHT22;62506;46.070;14.492;2023-02-12T03:17:31;21.10;41.30
64718;DHT22;62506;46.070;14.492;2023-02-12T03:20:07;21.10;41.30
64718;DHT22;62506;46.070;14.492;2023-02-12T03:22:34;21.10;41.30
64718;DHT22;62506;46.070;14.492;2023-02-12T03:25:20;21.10;41.30
64718;DHT22;62506;46.070;14.492;2023-02-12T03:28:31;21.10;41.40
64718;DHT22;62506;46.070;14.492;2023-02-12T03:33:15;21.10;41.50
64718;DHT22;62506;46.070;14.492;2023-02-12T03:38:36;21.10;41.50
64718;DHT22;62506;46.070;14.492;2023-02-12T03:43:33;21.10;41.50
64718;DHT22;62506;46.070;14.492;2023-02-12T03:46:07;21.10;41.70
64718;DHT22;62506;46.070;14.492;2023-02-12T03:48:41;21.10;41.70
64718;DHT22;62506;46.070;14.492;2023-02-12T03:51:15;21.10;41.70
64718;DHT22;62506;46.070;14.492;2023-02-12T03:53:47;21.10;41.70
64718;DHT22;62506;46.070;14.492;2023-02-12T03:56:14;21.10;41.70
64718;DHT22;62506;46.070;14.492;2023-02-12T03:58:40;21.10;41.70
64718;DHT22;62506;46.070;14.492;2023-02-12T04:01:07;21.10;41.60
64718;DHT22;62506;46.070;14.492;2023-02-12T04:03:33;21.10;41.50
64718;DHT22;62506;46.070;14.492;2023-02-12T04:05:59;21.10;41.50
64718;DHT22;62506;46.070;14.492;2023-02-12T04:08:27;21.10;41.50
64718;DHT22;62506;46.070;14.492;2023-02-12T04:19:17;21.10;41.40
64718;DHT22;62506;46.070;14.492;2023-02-12T04:32:58;21.10;41.40
64718;DHT22;62506;46.070;14.492;2023-02-12T04:35:21;21.10;41.40
64718;DHT22;62506;46.070;14.492;2023-02-12T04:37:49;21.10;41.40
64718;DHT22;62506;46.070;14.492;2023-02-12T04:40:17;21.10;41.40
64718;DHT22;62506;46.070;14.492;2023-02-12T04:42:47;21.10;41.30
64718;DHT22;62506;46.070;14.492;2023-02-12T04:45:14;21.10;41.40
64718;DHT22;62506;46.070;14.492;2023-02-12T04:47:40;21.00;41.30
64718;DHT22;62506;46.070;14.492;2023-02-12T04:50:06;21.00;41.40
64718;DHT22;62506;46.070;14.492;2023-02-12T04:52:32;21.00;41.30
64718;DHT22;62506;46.070;14.492;2023-02-12T04:54:57;21.00;41.30
64718;DHT22;62506;46.070;14.492;2023-02-12T04:57:23;21.00;41.30
64718;DHT22;62506;46.070;14.492;2023-02-12T04:59:48;21.00;41.30
64718;DHT22;62506;46.070;14.492;2023-02-12T05:02:14;21.00;41.30
64718;DHT22;62506;46.070;14.492;2023-02-12T05:15:16;21.00;41.50
64718;DHT22;62506;46.070;14.492;2023-02-12T05:17:42;21.00;41.60
64718;DHT22;62506;46.070;14.492;2023-02-12T05:20:09;21.00;41.50
64718;DHT22;62506;46.070;14.492;2023-02-12T05:22:34;21.00;41.50
64718;DHT22;62506;46.070;14.492;2023-02-12T05:25:00;20.90;41.50
64718;DHT22;62506;46.070;14.492;2023-02-12T05:27:25;20.90;41.50
64718;DHT22;62506;46.070;14.492;2023-02-12T05:29:51;20.90;41.50
64718;DHT22;62506;46.070;14.492;2023-02-12T05:32:16;20.90;41.50
64718;DHT22;62506;46.070;14.492;2023-02-12T05:34:42;20.90;41.20
64718;DHT22;62506;46.070;14.492;2023-02-12T05:37:10;20.90;41.40
64718;DHT22;62506;46.070;14.492;2023-02-12T05:39:36;20.90;41.50
64718;DHT22;62506;46.070;14.492;2023-02-12T05:42:01;21.00;41.80
64718;DHT22;62506;46.070;14.492;2023-02-12T05:44:27;21.00;41.00
64718;DHT22;62506;46.070;14.492;2023-02-12T05:46:55;21.10;40.90
64718;DHT22;62506;46.070;14.492;2023-02-12T05:49:20;21.10;40.60
64718;DHT22;62506;46.070;14.492;2023-02-12T05:51:46;21.10;41.20
64718;DHT22;62506;46.070;14.492;2023-02-12T05:54:11;21.20;40.40
64718;DHT22;62506;46.070;14.492;2023-02-12T05:56:41;21.20;40.40
64718;DHT22;62506;46.070;14.492;2023-02-12T05:59:11;21.30;41.10
64718;DHT22;62506;46.070;14.492;2023-02-12T06:01:38;21.30;40.90
64718;DHT22;62506;46.070;14.492;2023-02-12T06:04:04;21.40;40.70
64718;DHT22;62506;46.070;14.492;2023-02-12T06:06:30;21.40;40.70
64718;DHT22;62506;46.070;14.492;2023-02-12T06:08:56;21.40;40.70
64718;DHT22;62506;46.070;14.492;2023-02-12T06:11:22;21.40;40.90
64718;DHT22;62506;46.070;14.492;2023-02-12T06:27:18;21.70;41.40
64718;DHT22;62506;46.070;14.492;2023-02-12T06:29:44;21.70;41.30
64718;DHT22;62506;46.070;14.492;2023-02-12T06:32:09;21.70;41.20
64718;DHT22;62506;46.070;14.492;2023-02-12T06:34:38;21.70;40.70
64718;DHT22;62506;46.070;14.492;2023-02-12T06:37:03;21.70;40.30
64718;DHT22;62506;46.070;14.492;2023-02-12T06:39:29;21.70;40.20
64718;DHT22;62506;46.070;14.492;2023-02-12T06:41:58;21.80;40.70
64718;DHT22;62506;46.070;14.492;2023-02-12T06:44:23;21.70;36.60
64718;DHT22;62506;46.070;14.492;2023-02-12T06:46:49;21.70;38.00
64718;DHT22;62506;46.070;14.492;2023-02-12T06:49:14;21.80;38.60
64718;DHT22;62506;46.070;14.492;2023-02-12T06:51:40;21.80;39.00
64718;DHT22;62506;46.070;14.492;2023-02-12T06:54:11;21.80;39.30
64718;DHT22;62506;46.070;14.492;2023-02-12T06:56:36;21.90;39.20
64718;DHT22;62506;46.070;14.492;2023-02-12T06:59:02;21.90;38.90
64718;DHT22;62506;46.070;14.492;2023-02-12T07:04:03;21.90;38.80
64718;DHT22;62506;46.070;14.492;2023-02-12T11:14:05;22.70;38.00
64718;DHT22;62506;46.070;14.492;2023-02-12T11:16:35;22.70;38.20
64718;DHT22;62506;46.070;14.492;2023-02-12T11:19:03;22.70;38.50
64718;DHT22;62506;46.070;14.492;2023-02-12T11:21:29;22.70;38.50
64718;DHT22;62506;46.070;14.492;2023-02-12T11:23:55;22.70;38.80
64718;DHT22;62506;46.070;14.492;2023-02-12T11:26:22;22.70;38.60
64718;DHT22;62506;46.070;14.492;2023-02-12T11:28:53;22.60;38.40
64718;DHT22;62506;46.070;14.492;2023-02-12T11:31:20;22.70;38.50
64718;DHT22;62506;46.070;14.492;2023-02-12T11:34:05;22.70;38.40
64718;DHT22;62506;46.070;14.492;2023-02-12T11:36:32;22.80;38.70
64718;DHT22;62506;46.070;14.492;2023-02-12T11:38:59;22.80;38.50
64718;DHT22;62506;46.070;14.492;2023-02-12T11:41:33;22.80;38.40
64718;DHT22;62506;46.070;14.492;2023-02-12T11:46:46;22.90;39.50
64718;DHT22;62506;46.070;14.492;2023-02-12T11:49:16;22.90;39.50
64718;DHT22;62506;46.070;14.492;2023-02-12T11:51:45;22.90;39.70
64718;DHT22;62506;46.070;14.492;2023-02-12T11:54:15;22.90;40.10
64718;DHT22;62506;46.070;14.492;2023-02-12T11:56:45;23.00;40.70
64718;DHT22;62506;46.070;14.492;2023-02-12T12:27:06;22.70;40.40
64718;DHT22;62506;46.070;14.492;2023-02-12T12:29:53;22.70;40.40
64718;DHT22;62506;46.070;14.492;2023-02-12T12:32:22;22.70;40.70
64718;DHT22;62506;46.070;14.492;2023-02-12T12:34:51;22.70;40.50
64718;DHT22;62506;46.070;14.492;2023-02-12T13:04:22;22.80;40.90
64718;DHT22;62506;46.070;14.492;2023-02-12T13:44:19;22.90;40.80
64718;DHT22;62506;46.070;14.492;2023-02-12T14:14:31;21.90;33.70
64718;DHT22;62506;46.070;14.492;2023-02-12T14:40:48;22.90;36.80
64718;DHT22;62506;46.070;14.492;2023-02-12T14:56:49;22.80;37.30
64718;DHT22;62506;46.070;14.492;2023-02-12T14:59:21;22.80;37.40
64718;DHT22;62506;46.070;14.492;2023-02-12T15:01:48;22.80;37.90
64718;DHT22;62506;46.070;14.492;2023-02-12T15:04:27;22.90;38.20
64718;DHT22;62506;46.070;14.492;2023-02-12T15:27:19;22.90;39.10
64718;DHT22;62506;46.070;14.492;2023-02-12T15:29:52;22.90;39.00
64718;DHT22;62506;46.070;14.492;2023-02-12T15:32:36;22.90;36.20
64718;DHT22;62506;46.070;14.492;2023-02-12T15:35:26;22.80;37.30
64718;DHT22;62506;46.070;14.492;2023-02-12T15:37:52;22.80;37.80
64718;DHT22;62506;46.070;14.492;2023-02-12T15:40:19;22.80;38.50
64718;DHT22;62506;46.070;14.492;2023-02-12T15:42:57;22.80;38.40
64718;DHT22;62506;46.070;14.492;2023-02-12T15:45:33;22.80;38.40
64718;DHT22;62506;46.070;14.492;2023-02-12T15:48:37;22.80;38.50
64718;DHT22;62506;46.070;14.492;2023-02-12T15:53:35;22.80;38.70
64718;DHT22;62506;46.070;14.492;2023-02-12T15:59:14;22.90;38.70
64718;DHT22;62506;46.070;14.492;2023-02-12T16:41:18;23.00;39.20
64718;DHT22;62506;46.070;14.492;2023-02-12T16:43:45;23.00;39.10
64718;DHT22;62506;46.070;14.492;2023-02-12T16:46:12;23.00;39.10
64718;DHT22;62506;46.070;14.492;2023-02-12T16:48:39;23.10;39.10
64718;DHT22;62506;46.070;14.492;2023-02-12T16:51:19;23.10;39.30
64718;DHT22;62506;46.070;14.492;2023-02-12T16:53:44;23.10;39.30
64718;DHT22;62506;46.070;14.492;2023-02-12T16:56:13;23.20;39.90
64718;DHT22;62506;46.070;14.492;2023-02-12T16:58:40;23.20;40.00
64718;DHT22;62506;46.070;14.492;2023-02-12T17:01:06;23.20;39.90
64718;DHT22;62506;46.070;14.492;2023-02-12T17:03:32;23.10;39.60
64718;DHT22;62506;46.070;14.492;2023-02-12T17:05:57;23.10;39.50
64718;DHT22;62506;46.070;14.492;2023-02-12T17:08:23;23.00;39.90
64718;DHT22;62506;46.070;14.492;2023-02-12T17:10:49;23.10;40.10
64718;DHT22;62506;46.070;14.492;2023-02-12T17:13:15;23.00;40.90
64718;DHT22;62506;46.070;14.492;2023-02-12T17:15:54;23.00;40.10
64718;DHT22;62506;46.070;14.492;2023-02-12T17:18:20;22.90;40.20
64718;DHT22;62506;46.070;14.492;2023-02-12T17:20:48;22.90;39.60
64718;DHT22;62506;46.070;14.492;2023-02-12T17:23:15;22.90;40.30
64718;DHT22;62506;46.070;14.492;2023-02-12T17:25:41;23.00;40.50
64718;DHT22;62506;46.070;14.492;2023-02-12T17:28:07;23.00;40.40
64718;DHT22;62506;46.070;14.492;2023-02-12T17:30:33;23.00;40.10
64718;DHT22;62506;46.070;14.492;2023-02-12T17:32:58;22.90;40.10
64718;DHT22;62506;46.070;14.492;2023-02-12T17:35:24;22.90;40.10
64718;DHT22;62506;46.070;14.492;2023-02-12T17:37:50;22.90;40.10
64718;DHT22;62506;46.070;14.492;2023-02-12T17:40:15;22.90;40.30
64718;DHT22;62506;46.070;14.492;2023-02-12T17:42:41;23.00;40.70
64718;DHT22;62506;46.070;14.492;2023-02-12T17:45:06;23.00;41.40
64718;DHT22;62506;46.070;14.492;2023-02-12T17:47:32;23.00;41.20
64718;DHT22;62506;46.070;14.492;2023-02-12T17:50:13;23.00;40.90
64718;DHT22;62506;46.070;14.492;2023-02-12T17:52:39;23.00;40.70
64718;DHT22;62506;46.070;14.492;2023-02-12T17:55:05;22.90;40.60
64718;DHT22;62506;46.070;14.492;2023-02-12T17:57:31;22.90;40.50
64718;DHT22;62506;46.070;14.492;2023-02-12T17:59:56;22.80;40.60
64718;DHT22;62506;46.070;14.492;2023-02-12T18:02:22;22.80;40.60
64718;DHT22;62506;46.070;14.492;2023-02-12T18:04:47;22.80;40.60
64718;DHT22;62506;46.070;14.492;2023-02-12T18:07:13;22.80;41.00
64718;DHT22;62506;46.070;14.492;2023-02-12T18:09:38;22.80;41.20
64718;DHT22;62506;46.070;14.492;2023-02-12T18:12:04;22.80;40.90
64718;DHT22;62506;46.070;14.492;2023-02-12T18:14:30;22.80;41.30
64718;DHT22;62506;46.070;14.492;2023-02-12T18:16:55;22.80;40.60
64718;DHT22;62506;46.070;14.492;2023-02-12T18:19:23;22.80;40.60
64718;DHT22;62506;46.070;14.492;2023-02-12T18:21:49;22.80;40.60
64718;DHT22;62506;46.070;14.492;2023-02-12T18:24:14;22.80;40.60
64718;DHT22;62506;46.070;14.492;2023-02-12T18:26:40;23.00;41.00
64718;DHT22;62506;46.070;14.492;2023-02-12T18:29:05;23.00;40.50
64718;DHT22;62506;46.070;14.492;2023-02-12T18:31:31;23.00;40.30
64718;DHT22;62506;46.070;14.492;2023-02-12T18:33:57;22.90;40.30
64718;DHT22;62506;46.070;14.492;2023-02-12T18:36:22;22.90;40.30
64718;DHT22;62506;46.070;14.492;2023-02-12T18:38:49;22.90;40.30
64718;DHT22;62506;46.070;14.492;2023-02-12T18:41:16;22.90;40.30
64718;DHT22;62506;46.070;14.492;2023-02-12T18:43:44;22.90;40.30
64718;DHT22;62506;46.070;14.492;2023-02-12T18:46:20;22.90;40.30
64718;DHT22;62506;46.070;14.492;2023-02-12T18:48:49;22.90;41.00
64718;DHT22;62506;46.070;14.492;2023-02-12T18:51:16;23.00;39.10
64718;DHT22;62506;46.070;14.492;2023-02-12T18:53:41;22.80;37.10
64718;DHT22;62506;46.070;14.492;2023-02-12T18:56:08;22.80;39.00
64718;DHT22;62506;46.070;14.492;2023-02-12T18:58:34;22.80;39.10
64718;DHT22;62506;46.070;14.492;2023-02-12T19:00:59;22.90;38.60
64718;DHT22;62506;46.070;14.492;2023-02-12T19:03:26;22.80;39.20
64718;DHT22;62506;46.070;14.492;2023-02-12T19:05:51;22.90;38.90
64718;DHT22;62506;46.070;14.492;2023-02-12T19:08:17;22.90;39.20
64718;DHT22;62506;46.070;14.492;2023-02-12T19:10:43;22.90;39.20
64718;DHT22;62506;46.070;14.492;2023-02-12T19:13:09;22.90;39.20
64718;DHT22;62506;46.070;14.492;2023-02-12T19:15:38;22.90;39.30
64718;DHT22;62506;46.070;14.492;2023-02-12T19:18:04;22.90;39.50
64718;DHT22;62506;46.070;14.492;2023-02-12T19:20:30;22.90;39.50
64718;DHT22;62506;46.070;14.492;2023-02-12T19:22:56;22.80;39.60
64718;DHT22;62506;46.070;14.492;2023-02-12T19:25:22;22.80;39.60
64718;DHT22;62506;46.070;14.492;2023-02-12T19:27:47;22.80;39.70
64718;DHT22;62506;46.070;14.492;2023-02-12T19:30:13;22.80;39.80
64718;DHT22;62506;46.070;14.492;2023-02-12T19:32:40;22.80;39.80
64718;DHT22;62506;46.070;14.492;2023-02-12T19:35:06;22.80;39.90
64718;DHT22;62506;46.070;14.492;2023-02-12T19:37:32;22.70;39.90
64718;DHT22;62506;46.070;14.492;2023-02-12T19:55:33;22.70;40.30
64718;DHT22;62506;46.070;14.492;2023-02-12T19:57:59;22.70;40.50
64718;DHT22;62506;46.070;14.492;2023-02-12T20:00:25;22.70;40.40
64718;DHT22;62506;46.070;14.492;2023-02-12T20:02:54;22.80;40.30
64718;DHT22;62506;46.070;14.492;2023-02-12T20:07:56;22.70;40.90
64718;DHT22;62506;46.070;14.492;2023-02-12T20:10:21;22.70;41.10
64718;DHT22;62506;46.070;14.492;2023-02-12T20:12:47;22.70;42.00
64718;DHT22;62506;46.070;14.492;2023-02-12T20:15:12;22.80;42.00
64718;DHT22;62506;46.070;14.492;2023-02-12T20:17:38;22.80;42.00
64718;DHT22;62506;46.070;14.492;2023-02-12T20:20:04;22.70;42.60
64718;DHT22;62506;46.070;14.492;2023-02-12T20:22:29;22.70;42.70
64718;DHT22;62506;46.070;14.492;2023-02-12T20:24:55;22.60;42.40
64718;DHT22;62506;46.070;14.492;2023-02-12T20:27:20;22.50;42.40
64718;DHT22;62506;46.070;14.492;2023-02-12T20:29:46;22.50;42.40
64718;DHT22;62506;46.070;14.492;2023-02-12T20:32:11;22.50;42.40
64718;DHT22;62506;46.070;14.492;2023-02-12T20:34:37;22.40;42.30
64718;DHT22;62506;46.070;14.492;2023-02-12T20:37:03;22.40;42.20
64718;DHT22;62506;46.070;14.492;2023-02-12T20:39:29;22.40;42.20
64718;DHT22;62506;46.070;14.492;2023-02-12T20:41:55;22.40;42.20
64718;DHT22;62506;46.070;14.492;2023-02-12T20:44:20;22.40;42.20
64718;DHT22;62506;46.070;14.492;2023-02-12T20:46:46;22.30;42.20
64718;DHT22;62506;46.070;14.492;2023-02-12T20:49:13;22.30;42.00
64718;DHT22;62506;46.070;14.492;2023-02-12T20:51:39;22.30;42.10
64718;DHT22;62506;46.070;14.492;2023-02-12T20:54:05;22.30;42.10
64718;DHT22;62506;46.070;14.492;2023-02-12T20:56:31;22.30;42.10
64718;DHT22;62506;46.070;14.492;2023-02-12T20:58:57;22.20;42.00
64718;DHT22;62506;46.070;14.492;2023-02-12T21:01:27;22.20;42.00
64718;DHT22;62506;46.070;14.492;2023-02-12T21:03:55;22.20;42.00
64718;DHT22;62506;46.070;14.492;2023-02-12T21:06:22;22.20;41.90
64718;DHT22;62506;46.070;14.492;2023-02-12T21:08:48;22.20;41.90
64718;DHT22;62506;46.070;14.492;2023-02-12T21:11:16;22.20;42.00
64718;DHT22;62506;46.070;14.492;2023-02-12T21:13:43;22.20;42.00
64718;DHT22;62506;46.070;14.492;2023-02-12T21:16:12;22.20;41.80
64718;DHT22;62506;46.070;14.492;2023-02-12T21:18:38;22.10;41.90
64718;DHT22;62506;46.070;14.492;2023-02-12T21:21:05;22.10;41.90
64718;DHT22;62506;46.070;14.492;2023-02-12T21:23:31;22.20;41.90
64718;DHT22;62506;46.070;14.492;2023-02-12T21:26:00;22.10;41.80
64718;DHT22;62506;46.070;14.492;2023-02-12T21:28:26;22.10;41.80
64718;DHT22;62506;46.070;14.492;2023-02-12T21:30:52;22.10;41.80
64718;DHT22;62506;46.070;14.492;2023-02-12T21:33:17;22.10;41.80
64718;DHT22;62506;46.070;14.492;2023-02-12T21:35:43;22.10;41.80
64718;DHT22;62506;46.070;14.492;2023-02-12T21:38:08;22.10;41.90
64718;DHT22;62506;46.070;14.492;2023-02-12T21:40:34;22.10;41.90
64718;DHT22;62506;46.070;14.492;2023-02-12T21:42:59;22.10;41.80
64718;DHT22;62506;46.070;14.492;2023-02-12T21:45:25;22.10;41.90
64718;DHT22;62506;46.070;14.492;2023-02-12T21:47:50;22.10;41.90
64718;DHT22;62506;46.070;14.492;2023-02-12T21:50:17;22.10;41.90
64718;DHT22;62506;46.070;14.492;2023-02-12T21:52:42;22.00;42.00
64718;DHT22;62506;46.070;14.492;2023-02-12T21:55:08;22.00;42.00
64718;DHT22;62506;46.070;14.492;2023-02-12T21:57:33;22.00;42.00
64718;DHT22;62506;46.070;14.492;2023-02-12T21:59:59;22.00;42.00
64718;DHT22;62506;46.070;14.492;2023-02-12T22:02:24;22.00;42.10
64718;DHT22;62506;46.070;14.492;2023-02-12T22:04:52;22.00;42.10
64718;DHT22;62506;46.070;14.492;2023-02-12T22:07:18;22.00;42.30
64718;DHT22;62506;46.070;14.492;2023-02-12T22:09:45;22.00;42.10
64718;DHT22;62506;46.070;14.492;2023-02-12T22:12:10;21.90;42.10
64718;DHT22;62506;46.070;14.492;2023-02-12T22:14:36;22.00;42.20
64718;DHT22;62506;46.070;14.492;2023-02-12T22:17:01;21.90;42.10
64718;DHT22;62506;46.070;14.492;2023-02-12T22:19:27;21.90;42.10
64718;DHT22;62506;46.070;14.492;2023-02-12T22:21:53;21.90;42.10
64718;DHT22;62506;46.070;14.492;2023-02-12T22:24:18;21.90;42.10
64718;DHT22;62506;46.070;14.492;2023-02-12T22:26:44;21.90;42.30
64718;DHT22;62506;46.070;14.492;2023-02-12T22:29:13;21.90;42.30
64718;DHT22;62506;46.070;14.492;2023-02-12T22:31:40;21.90;42.30
64718;DHT22;62506;46.070;14.492;2023-02-12T22:34:06;21.90;42.30
64718;DHT22;62506;46.070;14.492;2023-02-12T22:36:33;21.90;42.30
64718;DHT22;62506;46.070;14.492;2023-02-12T22:38:59;21.90;42.20
64718;DHT22;62506;46.070;14.492;2023-02-12T22:41:26;21.90;43.00
64718;DHT22;62506;46.070;14.492;2023-02-12T22:43:51;21.90;42.30
64718;DHT22;62506;46.070;14.492;2023-02-12T22:46:17;21.90;42.30
64718;DHT22;62506;46.070;14.492;2023-02-12T22:48:43;21.90;42.60
64718;DHT22;62506;46.070;14.492;2023-02-12T22:51:13;21.90;42.40
64718;DHT22;62506;46.070;14.492;2023-02-12T22:53:39;21.90;42.40
64718;DHT22;62506;46.070;14.492;2023-02-12T22:56:05;21.90;42.40
64718;DHT22;62506;46.070;14.492;2023-02-12T22:58:30;21.90;42.40
64718;DHT22;62506;46.070;14.492;2023-02-12T23:01:03;21.90;42.40
64718;DHT22;62506;46.070;14.492;2023-02-12T23:03:28;21.90;42.40
64718;DHT22;62506;46.070;14.492;2023-02-12T23:05:55;21.80;42.40
64718;DHT22;62506;46.070;14.492;2023-02-12T23:08:21;21.90;42.40
64718;DHT22;62506;46.070;14.492;2023-02-12T23:10:46;21.80;42.40
64718;DHT22;62506;46.070;14.492;2023-02-12T23:13:12;21.80;42.40
64718;DHT22;62506;46.070;14.492;2023-02-12T23:15:37;21.80;42.40
64718;DHT22;62506;46.070;14.492;2023-02-12T23:18:03;21.80;42.40
64718;DHT22;62506;46.070;14.492;2023-02-12T23:20:28;21.80;42.50
64718;DHT22;62506;46.070;14.492;2023-02-12T23:22:54;21.80;42.50
64718;DHT22;62506;46.070;14.492;2023-02-12T23:25:19;21.80;42.50
64718;DHT22;62506;46.070;14.492;2023-02-12T23:27:45;21.80;42.50
64718;DHT22;62506;46.070;14.492;2023-02-12T23:30:11;21.80;42.50
64718;DHT22;62506;46.070;14.492;2023-02-12T23:32:36;21.80;42.50
64718;DHT22;62506;46.070;14.492;2023-02-12T23:35:02;21.80;43.20
64718;DHT22;62506;46.070;14.492;2023-02-12T23:37:27;21.80;42.50
64718;DHT22;62506;46.070;14.492;2023-02-12T23:39:53;21.80;42.50
64718;DHT22;62506;46.070;14.492;2023-02-12T23:42:18;21.80;42.50
64718;DHT22;62506;46.070;14.492;2023-02-12T23:44:44;21.80;42.50
64718;DHT22;62506;46.070;14.492;2023-02-12T23:47:09;21.80;42.50
64718;DHT22;62506;46.070;14.492;2023-02-12T23:49:35;21.80;43.10
64718;DHT22;62506;46.070;14.492;2023-02-12T23:52:02;21.80;42.50
64718;DHT22;62506;46.070;14.492;2023-02-12T23:54:27;21.80;42.50
64718;DHT22;62506;46.070;14.492;2023-02-12T23:56:53;21.80;42.40
64718;DHT22;62506;46.070;14.492;2023-02-12T23:59:18;21.80;42.50
